Mesquite, Nevada Weather observations

Data are for observation ending at time listed.
 Day   Time    Ave.   Ave.  Ave.  Vector   Max.   Stn.    Total    Solar   Ave.  
  of    of     Air    Rel.  Wind   Wind    Wind   Baro.  Precip.   Rad.    Soil  
Year   Day     Temp.  Hum.  Speed  Dir.    Gust   Pres.                    Temp. 
2014   (PST)    F      %     mph   deg.    mph     mb.     in.     W/m2     F   
------------------------------------------------------------------------------
 206    3:40   89.8    25    5.1    15      8.2   946.2    0.00       1    101.4
 206    3:50   90.7    25    4.3   341     10.5   946.3    0.00       0    101.2
 206    4:00   90.7    25    3.8   359     12.6   946.4    0.00       1    101.1
 206    4:10   90.0    25    5.8     5      8.0   946.5    0.00       0    101.0
 206    4:20   88.5    26    4.4   116      9.6   946.7    0.00       1    100.8
 206    4:30   86.7    28    4.1    37      6.3   946.7    0.00       3    100.7
 206    4:40   87.9    27    3.7   112      7.3   946.9    0.00       3    100.5
 206    4:50   89.0    26    3.9    68      6.7   947.0    0.00       3    100.3
 206    5:00   87.1    28    2.9    45      3.9   947.1    0.00       9    100.2
 206    5:10   87.5    28    1.9   252      4.2   947.2    0.00      21    100.1
 206    5:20   87.8    29    1.2   279      2.9   947.2    0.00      38    99.9
 206    5:30   87.5    30    2.7   306      4.1   947.1    0.00      40    99.8
 206    5:40   87.9    28    3.1   244      5.7   947.2    0.00      56    99.6
 206    5:50   88.8    27    3.4   312      5.6   947.3    0.00     103    99.6
 206    6:00   91.4    25    3.0     4      4.7   947.4    0.00     123    99.4
 206    6:10   93.5    23    2.2    55      4.2   947.6    0.00     145    99.2
 206    6:20   94.3    23    0.5   125      2.7   947.7    0.00     169    99.2
 206    6:30   92.1    25    2.3   166      4.6   947.8    0.00     193    99.0
 206    6:40   92.6    24    2.2   165      4.2   947.9    0.00     216    99.0
 206    6:50   94.9    22    1.3   132      3.4   947.9    0.00     244    98.9
 206    7:00   95.7    22    1.9   175      3.4   948.0    0.00     268    98.9
 206    7:10   95.8    22    1.4   197      2.8   948.1    0.00     292    98.8
 206    7:20   96.1    23    2.5   180      4.8   948.0    0.00     315    98.7
 206    7:30   97.1    22    2.0   219      3.6   948.0    0.00     337    98.7
 206    7:40   99.2    20    1.9   154      4.1   948.0    0.00     359    98.6
 206    7:50   99.5    20    2.1   183      4.4   948.0    0.00     356    98.6
 206    8:00  100.7    20    1.8   206      3.4   947.9    0.00     402    98.6
 206    8:10  101.0    19    2.2   206      4.2   947.9    0.00     424    98.6
 206    8:20  102.3    17    1.6   239      3.2   948.0    0.00     438    98.6
 206    8:30  102.1    17    1.8   206      3.7   948.1    0.00     194    98.6
 206    8:40  101.8    17    1.0   238      3.2   948.1    0.00     236    98.5
 206    8:50  100.9    17    2.0   247      4.8   948.1    0.00     195    98.6
 206    9:00  100.4    17    3.2   261      6.4   948.1    0.00     141    98.7
 206    9:10  101.4    17    3.0   253      5.5   948.1    0.00     498    98.8
 206    9:20  102.5    17    5.2   251      9.4   948.2    0.00     529    98.9
 206    9:30  102.7    17    5.3   252      9.1   948.2    0.00     575    99.0
 206    9:40  103.0    16    4.0   306      6.4   948.1    0.00     590    99.3
 206    9:50  105.2    15    2.2   140      7.8   948.0    0.00     610    99.6
 206   10:00  105.8    15    3.3     2      6.4   947.9    0.00     615    100.0
 206   10:10  105.4    15    6.2   209     13.7   947.8    0.00     584    100.5
 206   10:20  105.5    15    7.7   237     17.0   947.7    0.00     673    101.0
 206   10:30  105.2    15   11.3   242     23.2   947.6    0.00     686    101.5
 206   10:40  105.6    15    7.8   224     20.8   947.6    0.00     566    102.1
 206   10:50  106.0    15    7.1   203     19.3   947.5    0.00     309    102.6
 206   11:00  104.8    15    8.6   227     18.5   947.5    0.00     429    103.1
 206   11:10  104.7    15    9.3   229     19.6   947.5    0.00     349    103.5
 206   11:20  104.0    16    9.7   226     19.1   947.4    0.00     493    103.8
 206   11:30  104.8    16   10.9   232     22.4   947.4    0.00     525    104.1
 206   11:40  104.5    16   10.0   218     23.0   947.4    0.00     480    104.4
 206   11:50  106.2    15   10.2   208     20.2   947.4    0.00     837    104.8
 206   12:00  106.7    15    9.7   215     27.3   947.4    0.00     708    105.1
 206   12:10  103.7    17   12.9   218     28.5   947.6    0.00     298    105.6
 206   12:20  102.5    18   10.8   218     23.0   947.8    0.00     203    106.0
 206   12:30  101.6    18   10.2   220     21.9   948.0    0.00     168    106.2
 206   12:40  101.2    18    9.8   222     22.6   948.0    0.00     158    106.2
 206   12:50  101.0    19    8.9   235     18.5   947.9    0.00     267    106.2
 206   13:00  101.5    19   10.9   236     25.1   947.9    0.00     345    106.2
 206   13:10  101.6    19    9.8   246     18.3   947.9    0.00     348    106.2
 206   13:20  101.8    18   10.6   240     20.1   947.7    0.00     347    106.2
 206   13:30  102.0    17    7.5   225     19.4   947.6    0.00     266    106.2
 206   13:40  102.8    17    7.1   227     15.9   947.5    0.00     284    106.2
 206   13:50  102.2    17    5.7   216     15.3   947.4    0.00     173    106.3
 206   14:00  101.6    17    8.2   221     19.7   947.4    0.00     118    106.3
 206   14:10  100.2    18    7.6   239     16.9   947.4    0.00     238    106.3
 206   14:20  102.0    17    6.4   246     11.3   947.2    0.00     447    106.2
 206   14:30  104.4    15    5.8   222     17.7   947.1    0.00     643    106.3
 206   14:40  104.4    15    5.9   236     11.2   947.0    0.00     579    106.5
 206   14:50  104.8    15    7.1   231     14.8   946.8    0.00     480    106.9
 206   15:00  104.2    15    7.2   228     18.3   946.6    0.00     408    107.3
 206   15:10  105.2    15    5.4   225     14.2   946.5    0.00     542    107.7
 206   15:20  104.4    15    4.8   211     14.0   946.3    0.00     223    108.1
 206   15:30  103.8    16    5.6   240     11.8   946.2    0.00     196    108.4
 206   15:40  103.0    16    6.1   244     10.5   946.1    0.00     257    108.5
 206   15:50  103.5    15    6.6   239     14.1   946.1    0.00     207    108.6
 206   16:00  102.9    15    6.7   241     13.6   946.0    0.00     149    108.6
 206   16:10  102.4    15    8.9   248     15.8   945.9    0.00     144    108.6
 206   16:20  102.4    16    7.3   242     15.9   945.8    0.00     144    108.5
 206   16:30  102.0    16    7.5   245     13.3   945.7    0.00     113    108.4
 206   16:40  101.9    16    8.3   249     14.2   945.7    0.00     109    108.3
 206   16:50  102.0    16    7.7   251     12.1   945.7    0.00     121    108.1
 206   17:00  102.0    16    6.5   258     11.5   945.6    0.00     110    108.0
 206   17:10  101.9    16    6.8   254     11.2   945.6    0.00      90    107.9
 206   17:20  101.8    16    6.6   250     11.0   945.6    0.00      89    107.7
 206   17:30  101.8    16    6.3   251     11.5   945.5    0.00      89    107.5
 206   17:40  101.9    16    6.3   262     10.2   945.4    0.00      83    107.4
 206   17:50  101.9    16    5.8   254     10.4   945.5    0.00      82    107.2
 206   18:00  102.2    16    4.4   264      8.7   945.5    0.00      80    107.1
 206   18:10  102.0    16    3.8   260      7.0   945.7    0.00      55    106.9
 206   18:20  101.6    17    4.8   142      8.3   945.9    0.00      38    106.8
 206   18:30  101.1    18    7.8   139     13.9   945.9    0.00      24    106.7
 206   18:40  100.3    19    8.2   143     14.0   946.0    0.00      14    106.5
 206   18:50   99.9    20   11.7   141     17.7   946.0    0.00       9    106.3
 206   19:00   99.4    20    9.7   153     18.0   946.1    0.00       3    106.1
 206   19:10   99.0    20    9.7   150     18.3   946.2    0.00       1    105.9
 206   19:20   98.7    20   11.5   148     19.3   946.4    0.00       0    105.7
 206   19:30   98.3    21   11.9   141     17.8   946.5    0.00       0    105.5
 206   19:40   97.9    21   13.6   142     21.3   946.6    0.00       0    105.3
 206   19:50   97.7    22   13.3   139     20.1   946.7    0.00       0    105.2
 206   20:00   97.5    22   13.4   132     20.2   946.8    0.00       0    104.9
 206   20:10   97.0    23   14.2   128     23.0   946.8    0.00       0    104.8
 206   20:20   96.5    23   12.1   133     20.4   946.8    0.00       0    104.6
 206   20:30   96.4    23   12.6   130     20.8   946.9    0.00       0    104.4
 206   20:40   95.9    24   12.7   137     21.9   947.0    0.00       0    104.2
 206   20:50   95.6    24   13.4   144     23.5   947.1    0.00       0    104.1
 206   21:00   95.7    24   13.0   149     21.5   947.1    0.00       0    103.9
 206   21:10   95.2    25    9.8   132     15.6   947.1    0.00       0    103.7
 206   21:20   94.6    25    8.8   118     14.0   947.1    0.00       0    103.5
 206   21:30   94.5    25    5.9   111     11.4   947.2    0.00       0    103.4
 206   21:40   94.1    26    6.6   120     14.0   947.3    0.00       0    103.2
 206   21:50   94.6    25    6.8   126     12.3   947.4    0.00       0    103.0
 206   22:00   94.7    25    7.8   131     15.4   947.6    0.00       0    102.9
 206   22:10   94.2    25    7.4   121     19.3   947.6    0.00       0    102.7
 206   22:20   94.5    24    8.7   123     18.2   947.6    0.00       0    102.6
 206   22:30   94.1    25    7.9   122     14.4   947.7    0.00       0    102.4
 206   22:40   94.7    24   11.2   132     19.0   947.8    0.00       0    102.2
 206   22:50   94.7    24   11.2   130     20.8   948.0    0.00       0    102.1
 206   23:00   94.2    24   14.7   133     23.6   948.0    0.00       0    102.0
 206   23:10   93.9    24   12.5   137     21.5   948.1    0.00       1    101.8
 206   23:20   93.4    24    7.0   137     16.1   948.2    0.00       0    101.7
 206   23:30   93.4    24    5.4   155     10.3   948.3    0.00       0    101.5
 206   23:40   93.3    24    5.5   129     12.3   948.2    0.00       0    101.4
 206   23:50   93.1    24    3.5   130     10.2   948.3    0.00       0    101.3
 207    0:00   93.0    24    1.6   124      5.6   948.3    0.00       0    101.1
 207    0:10   92.4    25    3.5   117     11.1   948.4    0.00       0    101.0
 207    0:20   92.2    25    6.1   133     11.2   948.6    0.00       0    100.9
 207    0:30   92.4    25    6.1   137     12.1   948.6    0.00       0    100.8
 207    0:40   92.2    25    7.3   131     14.0   948.5    0.00       0    100.7
 207    0:50   91.9    25    5.2   128     10.1   948.4    0.00       0    100.5
 207    1:00   91.8    26    2.9   164      8.7   948.5    0.00       0    100.4
 207    1:10   91.7    26    8.1   295     12.9   948.4    0.00       0    100.3
 207    1:20   91.1    28    7.9   294     11.5   948.5    0.00       0    100.2
 207    1:30   90.0    29    5.1   290      8.0   948.6    0.00       0    100.1
 207    1:40   89.7    30    4.3   297      7.3   948.7    0.00       0    100.0
 207    1:50   89.6    31    4.5   289      7.7   948.8    0.00       1    99.9
 207    2:00   89.7    30    6.3   303      8.5   948.7    0.00       0    99.8
 207    2:10   89.6    30    6.1   311      8.6   948.7    0.00       0    99.7
 207    2:20   89.4    31    4.7   310      7.1   948.7    0.00       0    99.6
 207    2:30   89.2    31    3.9   316      5.8   948.7    0.00       0    99.4
 207    2:40   88.9    31    4.7   317      7.8   948.7    0.00       1    99.3
 207    2:50   89.1    31    5.3   316      7.8   948.8    0.00       1    99.2
 207    3:00   89.1    31    5.0   293      7.7   948.9    0.00       1    99.2
 207    3:10   89.1    31    3.1   296      6.8   949.0    0.00       1    99.0
 207    3:20   87.7    32    3.6    77      6.1   949.1    0.00       0    98.9
 207    3:30   87.4    33    1.6    95      2.9   949.2    0.00       1    98.8

Return to Mesquite, Nevada graphs page.


Western Regional Climate Center,wrcc@dri.edu